Time;durP1;ratioP1;P1;durP2;ratioP2;P2;SDS_P1;SDS_P2;PMS_P1;PMS_P2;Temp;Humidity;BMP_temperature;BMP_pressure;BME280_temperature;BME280_humidity;BME280_pressure;Samples;Min_cycle;Max_cycle;Signal;HPM_P1;HPM_P2
2024/01/09 00:02:24;;;;;;;13.13;7.53;;;-3.30;99.90;;;;;;5025485;28;20206;-56
2024/01/09 00:04:52;;;;;;;12.20;7.77;;;-3.30;99.90;;;;;;5025194;28;20731;-54
2024/01/09 00:07:19;;;;;;;11.43;7.27;;;-3.30;99.90;;;;;;5023013;28;20293;-54
2024/01/09 00:09:47;;;;;;;11.57;7.47;;;-3.30;99.90;;;;;;5022244;28;20199;-54
2024/01/09 00:12:14;;;;;;;13.13;7.47;;;-3.30;99.90;;;;;;5024064;28;20617;-55
2024/01/09 00:14:41;;;;;;;11.33;7.40;;;-3.40;99.90;;;;;;5025105;28;20226;-56
2024/01/09 00:17:08;;;;;;;11.93;7.20;;;-3.40;99.90;;;;;;5024780;28;20206;-54
2024/01/09 00:19:35;;;;;;;12.10;7.63;;;-3.30;99.90;;;;;;5021957;28;20583;-56
2024/01/09 00:22:03;;;;;;;14.00;8.07;;;-3.20;99.90;;;;;;5021883;28;20737;-54
2024/01/09 00:24:30;;;;;;;15.73;8.63;;;-3.20;99.90;;;;;;5024451;28;20720;-54
2024/01/09 00:26:56;;;;;;;14.10;8.77;;;-3.30;99.90;;;;;;5024674;28;20202;-54
2024/01/09 00:29:23;;;;;;;14.00;9.83;;;-3.30;99.90;;;;;;5021840;28;20673;-54
2024/01/09 00:31:50;;;;;;;12.07;8.03;;;-3.40;99.90;;;;;;5021878;28;20648;-56
2024/01/09 00:34:16;;;;;;;12.97;7.83;;;-3.40;99.90;;;;;;5023380;28;20602;-54
2024/01/09 00:36:44;;;;;;;11.63;7.20;;;-3.40;99.90;;;;;;5025132;28;20595;-55
2024/01/09 00:39:12;;;;;;;10.87;7.17;;;-3.40;99.90;;;;;;5023847;28;20273;-54
2024/01/09 00:41:38;;;;;;;11.90;7.80;;;-3.40;99.90;;;;;;5021648;28;20202;-55
2024/01/09 00:44:05;;;;;;;11.43;7.10;;;-3.40;99.90;;;;;;5021762;28;20250;-56
2024/01/09 00:46:32;;;;;;;11.53;7.37;;;-3.40;99.90;;;;;;5025257;28;20614;-55
2024/01/09 00:48:59;;;;;;;12.20;7.33;;;-3.40;99.90;;;;;;5025085;28;20211;-54
2024/01/09 00:51:25;;;;;;;13.57;8.30;;;-3.40;99.90;;;;;;5021384;28;20207;-56
2024/01/09 00:53:54;;;;;;;11.27;7.33;;;-3.50;99.90;;;;;;5021126;28;20223;-54
2024/01/09 00:56:22;;;;;;;12.83;7.33;;;-3.50;99.90;;;;;;5023899;28;20222;-56
2024/01/09 00:58:49;;;;;;;11.17;7.50;;;-3.40;99.90;;;;;;5025294;28;20220;-53
2024/01/09 01:01:16;;;;;;;13.97;8.03;;;-3.40;99.90;;;;;;5022797;28;20209;-54
2024/01/09 01:03:43;;;;;;;11.03;7.80;;;-3.40;99.90;;;;;;5020999;28;20234;-54
2024/01/09 01:06:09;;;;;;;12.90;8.10;;;-3.50;99.90;;;;;;5021899;28;20308;-58
2024/01/09 01:08:37;;;;;;;11.67;7.27;;;-3.50;99.90;;;;;;5024365;28;20249;-54
2024/01/09 01:11:04;;;;;;;12.07;7.50;;;-3.40;99.90;;;;;;5024096;28;20199;-57
2024/01/09 01:13:32;;;;;;;11.50;7.53;;;-3.50;99.90;;;;;;5021970;28;20643;-54
2024/01/09 01:15:59;;;;;;;12.63;7.67;;;-3.40;99.90;;;;;;5021807;28;20716;-55
2024/01/09 01:18:25;;;;;;;10.73;7.17;;;-3.50;99.90;;;;;;5024477;28;20210;-54
2024/01/09 01:20:52;;;;;;;12.77;7.77;;;-3.40;99.90;;;;;;5024282;28;20233;-55
2024/01/09 01:23:19;;;;;;;12.97;7.83;;;-3.50;99.90;;;;;;5021901;28;20206;-54
2024/01/09 01:25:45;;;;;;;11.83;7.73;;;-3.60;99.90;;;;;;5021304;28;20246;-54
2024/01/09 01:28:12;;;;;;;11.70;7.70;;;-3.50;99.90;;;;;;5022895;28;20269;-56
2024/01/09 01:30:40;;;;;;;11.10;7.77;;;-3.50;99.90;;;;;;5025547;28;20573;-55
2024/01/09 01:33:07;;;;;;;13.10;7.73;;;-3.50;99.90;;;;;;5023847;28;20624;-55
2024/01/09 01:35:33;;;;;;;12.23;7.93;;;-3.50;99.90;;;;;;5020403;28;20305;-54
2024/01/09 01:38:00;;;;;;;13.60;7.70;;;-3.60;99.90;;;;;;5020112;28;20205;-57
2024/01/09 01:40:27;;;;;;;11.53;7.90;;;-3.60;99.90;;;;;;5023538;28;20694;-55
2024/01/09 01:42:57;;;;;;;10.73;7.00;;;-3.60;99.90;;;;;;5023574;28;20202;-56
2024/01/09 01:45:25;;;;;;;15.20;8.37;;;-3.50;99.90;;;;;;5020404;28;20338;-54
2024/01/09 01:47:53;;;;;;;12.53;7.93;;;-3.50;99.90;;;;;;5020217;28;20231;-54
2024/01/09 01:50:21;;;;;;;13.03;7.63;;;-3.60;99.90;;;;;;5022358;28;20298;-54
2024/01/09 01:52:49;;;;;;;12.03;8.00;;;-3.60;99.90;;;;;;5023200;28;20237;-56
2024/01/09 01:55:19;;;;;;;14.73;8.43;;;-3.70;99.90;;;;;;5021502;28;20652;-54
2024/01/09 01:57:50;;;;;;;14.57;8.77;;;-3.60;99.90;;;;;;5020239;28;20210;-54
2024/01/09 02:00:18;;;;;;;12.00;8.10;;;-3.60;99.90;;;;;;5021603;28;20651;-55
2024/01/09 02:02:47;;;;;;;12.23;7.77;;;-3.70;99.90;;;;;;5023072;28;20690;-55
2024/01/09 02:05:16;;;;;;;11.90;8.10;;;-3.70;99.90;;;;;;5021464;28;20226;-54
2024/01/09 02:07:46;;;;;;;12.00;7.83;;;-3.70;99.90;;;;;;5019662;28;20211;-56
2024/01/09 02:10:13;;;;;;;13.57;7.77;;;-3.80;99.90;;;;;;5021129;28;20203;-54
2024/01/09 02:12:40;;;;;;;14.60;8.37;;;-3.70;99.90;;;;;;5023234;28;20206;-54
2024/01/09 02:15:08;;;;;;;12.23;7.60;;;-3.70;99.90;;;;;;5022531;28;20245;-53
2024/01/09 02:17:34;;;;;;;13.97;7.80;;;-3.70;99.90;;;;;;5019671;28;20202;-54
2024/01/09 02:20:01;;;;;;;13.33;7.67;;;-3.60;99.90;;;;;;5019977;28;20211;-55
2024/01/09 02:22:29;;;;;;;11.93;8.03;;;-3.70;99.90;;;;;;5022812;28;20202;-55
2024/01/09 02:24:56;;;;;;;12.47;8.13;;;-3.70;99.90;;;;;;5022903;28;20572;-55
2024/01/09 02:27:32;;;;;;;12.27;8.00;;;-3.80;99.90;;;;;;5020546;28;20588;-53
2024/01/09 02:30:01;;;;;;;11.23;7.60;;;-3.80;99.90;;;;;;5019563;28;20206;-55
2024/01/09 02:32:28;;;;;;;11.53;7.37;;;-3.80;99.90;;;;;;5022689;28;20217;-54
2024/01/09 02:34:55;;;;;;;12.17;8.07;;;-3.70;99.90;;;;;;5022705;28;20268;-53
2024/01/09 02:37:21;;;;;;;13.60;8.03;;;-3.80;99.90;;;;;;5020715;28;20210;-57
2024/01/09 02:39:48;;;;;;;14.57;8.03;;;-3.80;99.90;;;;;;5019677;28;20207;-54
2024/01/09 02:42:15;;;;;;;12.73;7.90;;;-3.80;99.90;;;;;;5020911;28;20203;-54
2024/01/09 02:44:42;;;;;;;12.20;8.00;;;-3.70;99.90;;;;;;5022492;28;20222;-57
2024/01/09 02:47:10;;;;;;;13.30;7.77;;;-3.80;99.90;;;;;;5022598;28;20256;-55
2024/01/09 02:49:37;;;;;;;13.03;8.40;;;-3.80;99.90;;;;;;5022294;28;20226;-53
2024/01/09 02:52:04;;;;;;;11.47;8.03;;;-3.70;99.90;;;;;;5023726;28;20513;-54
2024/01/09 02:54:31;;;;;;;13.70;8.53;;;-3.80;99.90;;;;;;5022988;28;20665;-55
2024/01/09 02:56:57;;;;;;;13.17;7.70;;;-3.70;99.90;;;;;;5023499;28;20685;-53
2024/01/09 02:59:26;;;;;;;12.70;8.07;;;-3.70;99.90;;;;;;5025963;28;20253;-54
2024/01/09 03:01:52;;;;;;;15.80;8.83;;;-3.70;99.90;;;;;;5027707;28;20245;-54
2024/01/09 03:04:21;;;;;;;12.47;7.57;;;-3.70;99.90;;;;;;5025511;28;20249;-54
2024/01/09 03:06:47;;;;;;;12.17;7.47;;;-3.70;99.90;;;;;;5024364;28;20203;-53
2024/01/09 03:09:14;;;;;;;13.53;8.10;;;-3.80;99.90;;;;;;5023973;28;20213;-58
2024/01/09 03:11:40;;;;;;;12.20;7.87;;;-3.80;99.90;;;;;;5026510;28;20206;-55
2024/01/09 03:14:07;;;;;;;14.83;8.33;;;-3.80;99.90;;;;;;5025678;28;20225;-53
2024/01/09 03:16:34;;;;;;;11.70;7.73;;;-3.80;99.90;;;;;;5023157;28;20207;-55
2024/01/09 03:19:00;;;;;;;12.63;7.93;;;-3.80;99.90;;;;;;5022858;28;20203;-55
2024/01/09 03:21:29;;;;;;;12.97;7.83;;;-3.90;99.90;;;;;;5025546;28;20256;-55
2024/01/09 03:23:55;;;;;;;12.60;7.53;;;-3.90;99.90;;;;;;5026464;28;20200;-54
2024/01/09 03:26:22;;;;;;;13.13;7.93;;;-3.90;99.90;;;;;;5023861;28;20292;-54
2024/01/09 03:28:49;;;;;;;12.03;7.73;;;-3.90;99.90;;;;;;5028843;28;20210;-53
2024/01/09 03:31:19;;;;;;;13.17;8.27;;;-3.90;99.90;;;;;;5024790;28;20664;-53
2024/01/09 03:33:46;;;;;;;12.70;7.30;;;-4.00;99.90;;;;;;5022609;28;20218;-54
2024/01/09 03:36:13;;;;;;;11.90;7.43;;;-4.00;99.90;;;;;;5023380;28;20222;-54
2024/01/09 03:38:41;;;;;;;11.23;7.43;;;-4.00;99.90;;;;;;5026211;28;20290;-54
2024/01/09 03:41:08;;;;;;;13.63;7.87;;;-4.00;99.90;;;;;;5026401;28;20213;-54
2024/01/09 03:43:35;;;;;;;13.47;7.90;;;-4.00;99.90;;;;;;5023290;28;20692;-54
2024/01/09 03:46:02;;;;;;;11.77;7.37;;;-4.00;99.90;;;;;;5023278;28;20230;-57
2024/01/09 03:48:28;;;;;;;12.43;7.20;;;-3.90;99.90;;;;;;5024973;28;20202;-57
2024/01/09 03:50:55;;;;;;;11.83;7.63;;;-3.90;99.90;;;;;;5025666;28;20202;-56
2024/01/09 03:53:22;;;;;;;12.40;7.50;;;-3.90;99.90;;;;;;5023082;28;20206;-59
2024/01/09 03:55:50;;;;;;;12.57;7.87;;;-3.90;99.90;;;;;;5022316;28;20222;-59
2024/01/09 03:58:16;;;;;;;12.30;7.30;;;-4.00;99.90;;;;;;5023425;28;20206;-58
2024/01/09 04:00:43;;;;;;;12.30;7.73;;;-3.90;99.90;;;;;;5025436;28;20202;-57
2024/01/09 04:03:10;;;;;;;12.33;7.63;;;-3.80;99.90;;;;;;5024841;28;20199;-58
2024/01/09 04:05:37;;;;;;;13.20;8.03;;;-3.80;99.90;;;;;;5021973;28;20215;-57
2024/01/09 04:08:04;;;;;;;10.43;6.60;;;-3.80;99.90;;;;;;5021739;28;20203;-59
2024/01/09 04:10:31;;;;;;;14.90;6.97;;;-3.80;99.90;;;;;;5025296;28;20229;-54
2024/01/09 04:12:59;;;;;;;12.30;7.70;;;-3.80;99.90;;;;;;5025277;28;20214;-56
2024/01/09 04:15:25;;;;;;;12.93;7.53;;;-3.80;99.90;;;;;;5022427;28;20226;-56
2024/01/09 04:17:52;;;;;;;12.47;7.83;;;-3.80;99.90;;;;;;5021652;28;20207;-53
2024/01/09 04:20:19;;;;;;;12.97;7.50;;;-3.80;99.90;;;;;;5023196;28;20211;-54
2024/01/09 04:22:45;;;;;;;11.73;7.43;;;-3.80;99.90;;;;;;5024801;28;20202;-55
2024/01/09 04:25:13;;;;;;;11.13;7.40;;;-3.80;99.90;;;;;;5024389;28;20708;-54
2024/01/09 04:27:39;;;;;;;12.73;7.60;;;-3.70;99.90;;;;;;5021849;28;20237;-54
2024/01/09 04:30:09;;;;;;;12.40;7.20;;;-3.70;99.90;;;;;;5021578;28;20257;-54
2024/01/09 04:32:35;;;;;;;11.57;7.30;;;-3.80;99.90;;;;;;5013752;28;20277;-53
2024/01/09 04:35:02;;;;;;;13.20;7.13;;;-3.70;99.90;;;;;;5020970;28;20229;-54
2024/01/09 04:37:29;;;;;;;10.80;6.80;;;-3.70;99.90;;;;;;5023982;28;20206;-55
2024/01/09 04:39:56;;;;;;;9.97;6.80;;;-3.70;99.90;;;;;;5024977;28;20256;-54
2024/01/09 04:42:22;;;;;;;9.77;7.23;;;-3.70;99.90;;;;;;5022739;28;20234;-55
2024/01/09 04:44:49;;;;;;;11.93;7.00;;;-3.70;99.90;;;;;;5020993;28;20226;-53
2024/01/09 04:47:17;;;;;;;11.77;7.23;;;-3.70;99.90;;;;;;5022104;28;20207;-53
2024/01/09 04:49:44;;;;;;;13.83;7.73;;;-3.70;99.90;;;;;;5024592;28;20213;-55
2024/01/09 04:52:11;;;;;;;11.63;7.30;;;-3.60;99.90;;;;;;5024184;28;20669;-53
2024/01/09 04:54:38;;;;;;;12.10;7.37;;;-3.60;99.90;;;;;;5020905;28;20235;-55
2024/01/09 04:57:05;;;;;;;10.30;7.17;;;-3.70;99.90;;;;;;5021219;28;20207;-53
2024/01/09 04:59:32;;;;;;;11.53;7.17;;;-3.70;99.90;;;;;;5024165;28;20214;-53
2024/01/09 05:02:01;;;;;;;12.63;7.27;;;-3.70;99.90;;;;;;5024349;28;20198;-55
2024/01/09 05:04:30;;;;;;;10.43;7.20;;;-3.70;99.90;;;;;;5021294;28;20681;-57
2024/01/09 05:06:57;;;;;;;10.20;7.07;;;-3.70;99.90;;;;;;5020866;28;20641;-53
2024/01/09 05:09:24;;;;;;;12.43;7.23;;;-3.70;99.90;;;;;;5022746;28;20207;-54
2024/01/09 05:11:51;;;;;;;12.30;7.30;;;-3.80;99.90;;;;;;5023846;28;20210;-53
2024/01/09 05:14:18;;;;;;;10.97;7.13;;;-3.70;99.90;;;;;;5022576;28;20228;-54
2024/01/09 05:16:45;;;;;;;11.83;7.57;;;-3.70;99.90;;;;;;5020927;28;20279;-54
2024/01/09 05:19:11;;;;;;;11.83;7.80;;;-3.70;99.90;;;;;;5020824;28;20207;-55
2024/01/09 05:21:39;;;;;;;12.13;7.57;;;-3.70;99.90;;;;;;5023971;28;20594;-54
2024/01/09 05:24:06;;;;;;;11.50;7.40;;;-3.70;99.90;;;;;;5023845;28;20194;-53
2024/01/09 05:26:33;;;;;;;12.67;7.73;;;-3.70;99.90;;;;;;5020824;28;20234;-54
2024/01/09 05:29:00;;;;;;;14.07;7.10;;;-3.80;99.90;;;;;;5020591;28;20207;-54
2024/01/09 05:31:26;;;;;;;12.47;7.53;;;-3.80;99.90;;;;;;5022735;28;20207;-53
2024/01/09 05:33:53;;;;;;;12.93;7.67;;;-3.90;99.90;;;;;;5023633;28;20199;-56
2024/01/09 05:36:22;;;;;;;10.27;6.60;;;-4.00;99.90;;;;;;5023023;28;20229;-53
2024/01/09 05:38:52;;;;;;;9.60;6.50;;;-3.90;99.90;;;;;;5020602;28;20199;-53
2024/01/09 05:41:22;;;;;;;11.80;7.27;;;-3.90;99.90;;;;;;5021353;28;20211;-53
2024/01/09 05:43:49;;;;;;;11.83;7.13;;;-3.90;99.90;;;;;;5023344;28;20294;-53
2024/01/09 05:46:16;;;;;;;13.27;7.70;;;-3.80;99.90;;;;;;5022529;28;20234;-56
2024/01/09 05:48:43;;;;;;;10.67;6.50;;;-3.90;99.90;;;;;;5020195;28;20210;-52
2024/01/09 05:51:10;;;;;;;12.40;7.37;;;-3.90;99.90;;;;;;5020269;28;20687;-54
2024/01/09 05:53:37;;;;;;;14.40;7.33;;;-3.90;99.90;;;;;;5023470;28;20222;-54
2024/01/09 05:56:06;;;;;;;12.37;6.90;;;-3.80;99.90;;;;;;5023298;28;20225;-54
2024/01/09 05:58:34;;;;;;;10.00;6.27;;;-3.90;99.90;;;;;;5020193;28;20203;-54
2024/01/09 06:01:00;;;;;;;13.57;7.70;;;-3.90;99.90;;;;;;5020302;28;20199;-54
2024/01/09 06:03:27;;;;;;;12.73;7.13;;;-3.80;99.90;;;;;;5021950;28;20628;-55
2024/01/09 06:05:54;;;;;;;14.90;7.53;;;-3.80;99.90;;;;;;5023608;28;20222;-53
2024/01/09 06:08:20;;;;;;;14.60;7.63;;;-3.80;99.90;;;;;;5021836;28;20587;-54
2024/01/09 06:10:47;;;;;;;14.83;7.70;;;-3.80;99.90;;;;;;5020213;28;20211;-54
2024/01/09 06:13:15;;;;;;;14.67;7.30;;;-3.80;99.90;;;;;;5019750;28;20215;-55
2024/01/09 06:15:42;;;;;;;12.17;7.20;;;-3.80;99.90;;;;;;5023239;28;20656;-55
2024/01/09 06:18:09;;;;;;;12.40;7.63;;;-3.80;99.90;;;;;;5023161;28;20210;-54
2024/01/09 06:20:35;;;;;;;15.33;8.80;;;-3.80;99.90;;;;;;5019612;28;20210;-53
2024/01/09 06:23:02;;;;;;;14.40;9.27;;;-3.80;99.90;;;;;;5019001;28;20473;-55
2024/01/09 06:25:29;;;;;;;15.00;8.83;;;-3.80;99.90;;;;;;5025873;28;20226;-54
2024/01/09 06:27:55;;;;;;;14.83;7.93;;;-3.80;99.90;;;;;;5027422;28;20202;-54
2024/01/09 06:30:23;;;;;;;10.07;6.67;;;-3.80;99.90;;;;;;5026038;28;20210;-55
2024/01/09 06:32:50;;;;;;;11.90;7.30;;;-3.90;99.90;;;;;;5023796;28;20584;-55
2024/01/09 06:35:17;;;;;;;11.33;7.13;;;-3.80;99.90;;;;;;5024577;28;20581;-54
2024/01/09 06:37:44;;;;;;;12.87;7.30;;;-3.80;99.90;;;;;;5027952;28;20714;-53
2024/01/09 06:40:11;;;;;;;14.10;7.63;;;-3.90;99.90;;;;;;5027438;28;20206;-54
2024/01/09 06:42:39;;;;;;;12.37;7.17;;;-3.80;99.90;;;;;;5015714;28;20220;-56
2024/01/09 06:45:06;;;;;;;14.83;7.30;;;-3.80;99.90;;;;;;5023652;28;20288;-53
2024/01/09 06:47:35;;;;;;;13.63;7.80;;;-3.90;99.90;;;;;;5026188;28;20212;-54
2024/01/09 06:50:02;;;;;;;11.93;7.23;;;-3.90;99.90;;;;;;5026670;28;20687;-54
2024/01/09 06:52:29;;;;;;;13.30;7.43;;;-4.00;99.90;;;;;;5024383;28;20210;-55
2024/01/09 06:54:55;;;;;;;14.13;7.77;;;-4.00;99.90;;;;;;5022874;28;20731;-54
2024/01/09 06:57:22;;;;;;;12.30;7.20;;;-4.00;99.90;;;;;;5024373;28;20218;-53
2024/01/09 06:59:49;;;;;;;11.03;7.07;;;-4.10;99.90;;;;;;5026718;28;20207;-54
2024/01/09 07:02:15;;;;;;;11.93;7.10;;;-4.00;99.90;;;;;;5026149;28;20211;-54
2024/01/09 07:04:43;;;;;;;12.43;7.13;;;-4.10;99.90;;;;;;5022859;28;20219;-53
2024/01/09 07:07:12;;;;;;;14.97;7.60;;;-4.10;99.90;;;;;;5023135;28;20260;-55
2024/01/09 07:09:39;;;;;;;11.73;6.67;;;-4.10;99.90;;;;;;5015429;28;20203;-54
2024/01/09 07:12:08;;;;;;;13.63;7.20;;;-4.00;99.90;;;;;;5023170;28;20203;-53
2024/01/09 07:14:34;;;;;;;11.67;7.30;;;-4.00;99.90;;;;;;5025387;28;20654;-54
2024/01/09 07:17:01;;;;;;;13.93;7.53;;;-4.00;99.90;;;;;;5026011;28;20203;-54
2024/01/09 07:19:28;;;;;;;11.50;6.90;;;-4.00;99.90;;;;;;5024177;28;20209;-54
2024/01/09 07:21:56;;;;;;;12.20;7.43;;;-4.00;99.90;;;;;;5022640;28;20199;-53
2024/01/09 07:24:22;;;;;;;12.57;7.13;;;-3.90;99.90;;;;;;5023604;28;20677;-53
2024/01/09 07:26:49;;;;;;;14.30;7.50;;;-3.90;99.90;;;;;;5026154;28;20680;-55
2024/01/09 07:29:19;;;;;;;11.87;7.27;;;-3.90;99.90;;;;;;5025769;28;20206;-53
2024/01/09 07:31:46;;;;;;;14.83;7.27;;;-3.90;99.90;;;;;;5022583;28;20281;-54
2024/01/09 07:34:12;;;;;;;12.87;7.77;;;-3.90;99.90;;;;;;5022081;28;20215;-54
2024/01/09 07:36:39;;;;;;;12.23;7.87;;;-3.80;99.90;;;;;;5022640;28;20218;-56
2024/01/09 07:39:09;;;;;;;16.27;7.63;;;-3.90;99.90;;;;;;5022493;28;20246;-57
2024/01/09 07:41:36;;;;;;;15.90;9.13;;;-3.90;99.90;;;;;;5025503;28;20300;-53
2024/01/09 07:44:03;;;;;;;12.43;8.10;;;-3.80;99.90;;;;;;5026084;28;20726;-54
2024/01/09 07:46:30;;;;;;;12.63;7.70;;;-3.80;99.90;;;;;;5023343;28;20230;-53
2024/01/09 07:48:57;;;;;;;14.63;7.90;;;-3.80;99.90;;;;;;5022288;28;20211;-53
2024/01/09 07:51:24;;;;;;;11.07;7.37;;;-3.80;99.90;;;;;;5023662;28;20273;-53
2024/01/09 07:53:50;;;;;;;13.10;7.77;;;-3.70;99.90;;;;;;5025764;28;20293;-53
2024/01/09 07:56:20;;;;;;;11.60;7.43;;;-3.70;99.90;;;;;;5025032;28;20222;-53
2024/01/09 07:58:47;;;;;;;11.47;7.50;;;-3.70;99.90;;;;;;5022467;28;20207;-53
2024/01/09 08:01:14;;;;;;;13.93;7.30;;;-3.70;99.90;;;;;;5022584;28;20195;-53
2024/01/09 08:03:41;;;;;;;10.23;7.07;;;-3.60;99.90;;;;;;5013962;28;20202;-54
2024/01/09 08:06:08;;;;;;;10.80;6.93;;;-3.60;99.90;;;;;;5022033;28;20225;-56
2024/01/09 08:08:38;;;;;;;12.67;7.40;;;-3.60;99.90;;;;;;5024850;28;20210;-53
2024/01/09 08:11:05;;;;;;;14.77;7.47;;;-3.50;99.90;;;;;;5025493;28;20206;-53
2024/01/09 08:13:33;;;;;;;14.97;7.93;;;-3.40;99.90;;;;;;5022775;28;20207;-53
2024/01/09 08:16:00;;;;;;;16.57;7.83;;;-3.40;99.90;;;;;;5021556;28;20231;-56
2024/01/09 08:18:26;;;;;;;13.77;8.10;;;-3.30;99.90;;;;;;5023748;28;20693;-54
2024/01/09 08:20:53;;;;;;;11.80;7.47;;;-3.30;99.90;;;;;;5025430;28;20253;-53
2024/01/09 08:23:20;;;;;;;12.57;7.80;;;-3.30;99.90;;;;;;5024440;28;20672;-55
2024/01/09 08:25:47;;;;;;;13.50;8.23;;;-3.20;99.90;;;;;;5021602;28;20226;-53
2024/01/09 08:28:13;;;;;;;15.20;7.93;;;-3.20;99.90;;;;;;5021751;28;20207;-53
2024/01/09 08:30:41;;;;;;;14.00;7.67;;;-3.10;99.90;;;;;;5024621;28;20724;-58
2024/01/09 08:33:08;;;;;;;12.43;7.40;;;-3.10;99.90;;;;;;5024744;28;20198;-56
2024/01/09 08:35:35;;;;;;;12.20;7.37;;;-3.10;99.90;;;;;;5022315;28;20237;-53
2024/01/09 08:38:02;;;;;;;14.73;7.67;;;-3.10;99.90;;;;;;5021516;28;20199;-54
2024/01/09 08:40:30;;;;;;;13.53;7.60;;;-3.10;99.90;;;;;;5023439;28;20235;-53
2024/01/09 08:42:57;;;;;;;15.37;7.87;;;-3.10;99.90;;;;;;5024515;28;20198;-53
2024/01/09 08:45:24;;;;;;;15.07;8.27;;;-3.00;99.90;;;;;;5016117;28;20231;-53
2024/01/09 08:47:52;;;;;;;14.37;7.63;;;-3.00;99.90;;;;;;5023963;28;20226;-53
2024/01/09 08:50:19;;;;;;;18.63;8.53;;;-2.90;99.90;;;;;;5024492;28;20213;-54
2024/01/09 08:52:46;;;;;;;13.10;7.90;;;-2.70;99.90;;;;;;5021212;28;20243;-53
2024/01/09 08:55:12;;;;;;;15.90;8.57;;;-2.60;99.90;;;;;;5020986;28;20230;-53
2024/01/09 08:57:39;;;;;;;11.43;7.60;;;-2.50;99.90;;;;;;5024202;28;20285;-54
2024/01/09 09:00:07;;;;;;;14.63;8.40;;;-2.50;99.90;;;;;;5024786;28;20281;-52
2024/01/09 09:02:34;;;;;;;13.67;7.47;;;-2.40;99.90;;;;;;5022198;28;20638;-53
2024/01/09 09:05:02;;;;;;;14.17;7.87;;;-2.40;99.90;;;;;;5020836;28;20231;-55
2024/01/09 09:07:29;;;;;;;14.33;7.97;;;-2.40;99.90;;;;;;5022804;28;20211;-57
2024/01/09 09:09:55;;;;;;;14.27;8.20;;;-2.30;99.90;;;;;;5024746;28;20210;-54
2024/01/09 09:12:22;;;;;;;12.50;8.13;;;-2.20;99.90;;;;;;5023429;28;20221;-53
2024/01/09 09:14:49;;;;;;;14.67;8.47;;;-2.20;99.90;;;;;;5020625;28;20232;-53
2024/01/09 09:17:16;;;;;;;14.57;8.37;;;-2.10;99.90;;;;;;5021058;28;20229;-53
2024/01/09 09:19:43;;;;;;;13.53;8.10;;;-2.10;99.90;;;;;;5013041;28;20207;-53
2024/01/09 09:22:12;;;;;;;13.30;7.87;;;-2.00;99.90;;;;;;5020829;28;20203;-54
2024/01/09 09:24:39;;;;;;;13.40;8.47;;;-2.00;99.90;;;;;;5023122;28;20511;-53
2024/01/09 09:27:06;;;;;;;12.10;7.60;;;-1.90;99.90;;;;;;5024254;28;20290;-53
2024/01/09 09:29:32;;;;;;;14.43;8.40;;;-1.90;99.90;;;;;;5022092;28;20205;-53
2024/01/09 09:31:59;;;;;;;15.13;7.93;;;-1.90;99.90;;;;;;5020689;28;20207;-53
2024/01/09 09:34:26;;;;;;;13.10;7.93;;;-2.00;99.90;;;;;;5021478;28;20361;-54
2024/01/09 09:36:53;;;;;;;13.83;7.43;;;-1.90;99.90;;;;;;5023917;28;20222;-55
2024/01/09 09:39:21;;;;;;;13.73;7.97;;;-1.80;99.90;;;;;;5023526;28;20210;-53
2024/01/09 09:41:55;;;;;;;14.57;8.60;;;-1.70;99.90;;;;;;5020750;28;20211;-54
2024/01/09 09:44:23;;;;;;;12.57;8.37;;;-1.60;99.90;;;;;;5020776;28;20222;-54
2024/01/09 09:46:51;;;;;;;18.87;8.47;;;-1.60;99.90;;;;;;5054289;22;20328;-59
2024/01/09 09:49:19;;;;;;;12.50;7.87;;;-1.50;99.90;;;;;;5031594;28;20203;-58
2024/01/09 09:51:46;;;;;;;22.13;8.70;;;-1.40;99.90;;;;;;5031410;28;20256;-59
2024/01/09 09:54:15;;;;;;;22.50;9.53;;;-1.30;99.90;;;;;;5031998;28;20259;-59
2024/01/09 09:56:45;;;;;;;11.90;7.80;;;-1.10;99.90;;;;;;5031079;28;20312;-59
2024/01/09 09:59:11;;;;;;;15.13;8.67;;;-1.10;99.90;;;;;;5031379;28;20210;-59
2024/01/09 10:01:39;;;;;;;21.40;9.57;;;-1.00;99.90;;;;;;5031180;28;20212;-59
2024/01/09 10:04:15;;;;;;;21.10;8.63;;;-0.90;99.90;;;;;;5030932;28;20668;-58
2024/01/09 10:06:47;;;;;;;19.80;8.70;;;-0.90;99.90;;;;;;5031111;28;20241;-59
2024/01/09 10:09:15;;;;;;;13.77;8.30;;;-0.80;99.90;;;;;;5031250;28;20692;-59
2024/01/09 10:11:43;;;;;;;14.20;8.10;;;-0.80;99.90;;;;;;5031052;28;20706;-59
2024/01/09 10:14:10;;;;;;;20.70;9.00;;;-0.80;99.90;;;;;;5031161;28;20209;-59
2024/01/09 10:16:50;;;;;;;25.17;8.93;;;-0.80;99.90;;;;;;5031004;28;20252;-59
2024/01/09 10:19:17;;;;;;;13.87;7.60;;;-0.80;99.90;;;;;;5031600;28;20272;-59
2024/01/09 10:21:44;;;;;;;19.03;8.40;;;-0.80;99.90;;;;;;5031187;28;20690;-59
2024/01/09 10:24:11;;;;;;;17.63;7.47;;;-0.80;99.90;;;;;;5031078;28;20225;-59
2024/01/09 10:26:38;;;;;;;20.97;8.57;;;-0.70;99.90;;;;;;5030969;28;20230;-59
2024/01/09 10:29:06;;;;;;;26.57;9.07;;;-0.80;99.90;;;;;;5030996;28;20206;-59
2024/01/09 10:31:32;;;;;;;15.57;8.10;;;-0.60;99.90;;;;;;5030879;28;20239;-58
2024/01/09 10:33:59;;;;;;;12.40;7.90;;;-0.50;99.90;;;;;;5030969;28;20202;-59
2024/01/09 10:36:26;;;;;;;18.20;8.23;;;-0.50;99.90;;;;;;5030656;28;20765;-59
2024/01/09 10:39:01;;;;;;;16.10;8.67;;;-0.40;99.90;;;;;;5030979;28;20206;-59
2024/01/09 10:41:28;;;;;;;16.87;7.87;;;-0.20;99.90;;;;;;5030742;28;20202;-59
2024/01/09 10:43:56;;;;;;;16.40;8.37;;;-0.10;99.90;;;;;;5030815;28;20210;-59
2024/01/09 10:46:25;;;;;;;11.73;7.67;;;0.10;99.90;;;;;;5030509;28;20226;-58
2024/01/09 10:48:53;;;;;;;14.50;7.07;;;0.10;99.50;;;;;;5030739;28;20198;-60
2024/01/09 10:51:22;;;;;;;14.00;7.67;;;0.20;99.20;;;;;;5030538;28;20711;-59
2024/01/09 10:53:50;;;;;;;11.83;7.73;;;0.20;98.80;;;;;;5030456;28;20206;-58
2024/01/09 10:56:20;;;;;;;12.97;7.90;;;0.20;98.80;;;;;;5030484;28;20226;-59
2024/01/09 10:58:48;;;;;;;12.17;7.73;;;0.20;98.70;;;;;;5022536;28;20665;-60
2024/01/09 11:01:15;;;;;;;13.57;8.13;;;0.20;98.50;;;;;;5030791;28;20290;-60
2024/01/09 11:03:44;;;;;;;12.60;7.90;;;0.40;98.60;;;;;;5030224;28;20672;-56
2024/01/09 11:06:12;;;;;;;16.33;8.83;;;0.50;98.60;;;;;;5028274;28;20223;-63
2024/01/09 11:08:43;;;;;;;12.17;7.30;;;0.70;98.00;;;;;;5030505;28;20203;-65
2024/01/09 11:11:13;;;;;;;11.83;7.17;;;0.80;97.80;;;;;;5033823;28;20206;-62
2024/01/09 11:13:46;;;;;;;11.40;7.60;;;0.90;97.50;;;;;;5034085;28;20229;-63
2024/01/09 11:16:15;;;;;;;10.80;7.33;;;1.00;97.50;;;;;;5033397;28;20269;-64
2024/01/09 11:18:46;;;;;;;13.70;8.27;;;1.00;97.00;;;;;;5033907;28;20198;-63
2024/01/09 11:21:13;;;;;;;13.60;7.50;;;1.10;96.70;;;;;;5034021;28;20198;-62
2024/01/09 11:23:54;;;;;;;15.27;7.53;;;1.10;96.50;;;;;;5033524;28;20211;-62
2024/01/09 11:26:23;;;;;;;12.73;7.83;;;1.10;95.90;;;;;;5033678;28;20219;-60
2024/01/09 11:28:50;;;;;;;14.90;8.17;;;1.10;96.40;;;;;;5034074;28;20237;-61
2024/01/09 11:31:20;;;;;;;13.97;7.30;;;1.10;96.30;;;;;;5034147;28;20248;-62
2024/01/09 11:33:49;;;;;;;12.57;7.70;;;1.10;96.50;;;;;;5025526;28;20680;-62
2024/01/09 11:36:23;;;;;;;12.50;7.57;;;1.20;96.60;;;;;;5033820;28;20241;-63
2024/01/09 11:38:52;;;;;;;11.97;6.90;;;1.30;96.20;;;;;;5026396;28;20253;-61
2024/01/09 11:41:21;;;;;;;11.83;7.33;;;1.40;96.00;;;;;;5033892;28;20210;-61
2024/01/09 11:44:01;;;;;;;13.67;8.57;;;1.50;95.80;;;;;;5025446;28;20691;-59
2024/01/09 11:46:29;;;;;;;11.37;7.23;;;1.50;95.40;;;;;;5033070;28;20355;-59
2024/01/09 11:48:57;;;;;;;11.53;7.43;;;1.40;95.40;;;;;;5033319;28;20225;-61
2024/01/09 11:51:24;;;;;;;11.80;6.80;;;1.50;94.90;;;;;;5033573;28;20206;-61
2024/01/09 11:53:51;;;;;;;11.77;6.67;;;1.50;94.90;;;;;;5033520;28;20341;-62
2024/01/09 11:56:18;;;;;;;12.67;7.00;;;1.50;94.90;;;;;;5033452;28;20234;-64
2024/01/09 11:58:46;;;;;;;11.40;6.80;;;1.50;94.50;;;;;;5033394;28;20209;-59
2024/01/09 12:01:13;;;;;;;11.60;7.03;;;1.50;94.40;;;;;;5033774;28;20210;-60
2024/01/09 12:03:40;;;;;;;11.87;8.63;;;1.60;94.30;;;;;;5033103;28;20238;-60
2024/01/09 12:06:08;;;;;;;12.80;8.97;;;1.70;94.70;;;;;;5033103;28;20218;-58
2024/01/09 12:08:35;;;;;;;10.77;6.90;;;1.90;94.80;;;;;;5033159;28;20217;-61
2024/01/09 12:11:02;;;;;;;12.67;6.73;;;1.90;94.50;;;;;;5033119;28;20582;-61
2024/01/09 12:13:29;;;;;;;11.47;6.70;;;1.90;94.40;;;;;;5032818;28;20627;-61
2024/01/09 12:15:56;;;;;;;10.93;6.80;;;1.90;94.00;;;;;;5033023;28;20225;-60
2024/01/09 12:18:23;;;;;;;10.27;6.83;;;2.00;94.20;;;;;;5032981;28;20213;-61
2024/01/09 12:20:50;;;;;;;11.20;6.67;;;2.00;94.00;;;;;;5032063;28;20202;-61
2024/01/09 12:23:19;;;;;;;9.53;6.50;;;1.90;93.60;;;;;;5032849;28;20268;-60
2024/01/09 12:25:48;;;;;;;11.27;6.97;;;2.00;93.60;;;;;;5032730;28;20226;-59
2024/01/09 12:28:15;;;;;;;10.43;7.00;;;2.00;93.90;;;;;;5033102;28;20198;-59
2024/01/09 12:30:42;;;;;;;11.27;7.43;;;2.10;93.80;;;;;;5033246;28;20213;-60
2024/01/09 12:33:09;;;;;;;11.17;6.93;;;2.30;93.80;;;;;;5033129;28;20289;-59
2024/01/09 12:35:37;;;;;;;11.53;6.27;;;2.30;93.70;;;;;;5032847;28;20284;-59
2024/01/09 12:38:04;;;;;;;10.47;7.13;;;2.50;93.30;;;;;;5033045;28;20253;-59
2024/01/09 12:40:32;;;;;;;11.77;7.53;;;2.40;93.20;;;;;;5033053;28;20213;-60